VTD105 UWLL-UWKE
Flight info
| Callsign | VTD105 |
|---|---|
| Flight time | 1h 43m |
| Altitude | 9000 |
| Route | AGUTO T789 GUBOM T788 NAMUD T690 BAKAP |
| Aircraft | C172/L-SDGY/C |
Departure
| Time | 2026-05-08 04:22 |
|---|---|
| Airport | Ulyanovsk Baratayevka Airport (UWLL) |
Arrival
| Time | 2026-05-08 06:05 |
|---|---|
| Airport | Begishevo Airport (UWKE) |
| Time | Latitude | Longitude | Altitude | Speed | Heading |
|---|---|---|---|---|---|
| 2026-05-08 04:00 | 54.27004 | 48.23353 | 453 ft | 0 kts | 122° |
| 2026-05-08 04:16 | 54.26990 | 48.23372 | 453 ft | 6 kts | 189° |
| 2026-05-08 04:16 | 54.26936 | 48.23302 | 453 ft | 10 kts | 256° |
| 2026-05-08 04:17 | 54.26968 | 48.23190 | 453 ft | 10 kts | 302° |
| 2026-05-08 04:17 | 54.27006 | 48.23082 | 453 ft | 10 kts | 299° |
| 2026-05-08 04:17 | 54.27019 | 48.22998 | 453 ft | 7 kts | 230° |
| 2026-05-08 04:17 | 54.26967 | 48.22939 | 453 ft | 10 kts | 212° |
| 2026-05-08 04:18 | 54.26919 | 48.22851 | 453 ft | 11 kts | 282° |
| 2026-05-08 04:18 | 54.26982 | 48.22792 | 453 ft | 11 kts | 347° |
| 2026-05-08 04:18 | 54.26999 | 48.22786 | 453 ft | 0 kts | 346° |
| 2026-05-08 04:20 | 54.27017 | 48.22778 | 453 ft | 9 kts | 346° |
| 2026-05-08 04:20 | 54.27090 | 48.22746 | 453 ft | 10 kts | 340° |
| 2026-05-08 04:21 | 54.27175 | 48.22728 | 453 ft | 10 kts | 23° |
| 2026-05-08 04:21 | 54.27313 | 48.22875 | 453 ft | 49 kts | 31° |
| 2026-05-08 04:21 | 54.27712 | 48.23303 | 528 ft | 75 kts | 32° |
| 2026-05-08 04:21 | 54.28137 | 48.23785 | 734 ft | 72 kts | 30° |
| 2026-05-08 04:22 | 54.28555 | 48.24253 | 915 ft | 75 kts | 32° |
| 2026-05-08 04:22 | 54.29028 | 48.24788 | 1058 ft | 83 kts | 31° |
| 2026-05-08 04:22 | 54.29505 | 48.25327 | 1287 ft | 80 kts | 31° |
| 2026-05-08 04:22 | 54.29964 | 48.25849 | 1488 ft | 80 kts | 31° |
| 2026-05-08 04:23 | 54.30445 | 48.26380 | 1666 ft | 83 kts | 31° |
| 2026-05-08 04:23 | 54.30923 | 48.26933 | 1877 ft | 81 kts | 29° |
| 2026-05-08 04:23 | 54.31403 | 48.27423 | 2067 ft | 81 kts | 25° |
| 2026-05-08 04:23 | 54.31901 | 48.27877 | 2259 ft | 81 kts | 26° |
| 2026-05-08 04:24 | 54.32392 | 48.28331 | 2457 ft | 80 kts | 24° |
| 2026-05-08 04:24 | 54.32877 | 48.28792 | 2640 ft | 80 kts | 26° |
| 2026-05-08 04:24 | 54.33362 | 48.29260 | 2818 ft | 80 kts | 25° |
| 2026-05-08 04:24 | 54.33848 | 48.29715 | 3011 ft | 79 kts | 27° |
| 2026-05-08 04:25 | 54.34318 | 48.30188 | 3192 ft | 80 kts | 33° |
| 2026-05-08 04:25 | 54.34784 | 48.30645 | 3420 ft | 76 kts | 21° |
| 2026-05-08 04:25 | 54.35288 | 48.31020 | 3587 ft | 81 kts | 25° |
| 2026-05-08 04:25 | 54.35784 | 48.31461 | 3793 ft | 81 kts | 25° |
| 2026-05-08 04:26 | 54.36283 | 48.31910 | 3985 ft | 82 kts | 25° |
| 2026-05-08 04:26 | 54.36784 | 48.32386 | 4199 ft | 81 kts | 26° |
| 2026-05-08 04:26 | 54.37280 | 48.32849 | 4383 ft | 83 kts | 25° |
| 2026-05-08 04:26 | 54.37796 | 48.33332 | 4558 ft | 85 kts | 26° |
| 2026-05-08 04:27 | 54.38316 | 48.33816 | 4748 ft | 86 kts | 24° |
| 2026-05-08 04:27 | 54.38845 | 48.34296 | 4937 ft | 86 kts | 25° |
| 2026-05-08 04:27 | 54.39368 | 48.34777 | 5136 ft | 84 kts | 25° |
| 2026-05-08 04:27 | 54.39876 | 48.35252 | 5319 ft | 83 kts | 25° |
| 2026-05-08 04:28 | 54.40386 | 48.35730 | 5493 ft | 84 kts | 25° |
| 2026-05-08 04:28 | 54.40892 | 48.36206 | 5664 ft | 84 kts | 25° |
| 2026-05-08 04:28 | 54.41408 | 48.36691 | 5834 ft | 84 kts | 25° |
| 2026-05-08 04:28 | 54.41922 | 48.37175 | 5996 ft | 84 kts | 25° |
| 2026-05-08 04:29 | 54.42439 | 48.37664 | 6158 ft | 85 kts | 25° |
| 2026-05-08 04:29 | 54.42961 | 48.38157 | 6318 ft | 85 kts | 25° |
| 2026-05-08 04:29 | 54.43528 | 48.38692 | 6490 ft | 85 kts | 25° |
| 2026-05-08 04:29 | 54.44048 | 48.39185 | 6646 ft | 86 kts | 25° |
| 2026-05-08 04:30 | 54.44571 | 48.39680 | 6800 ft | 86 kts | 25° |
| 2026-05-08 04:30 | 54.45098 | 48.40179 | 6953 ft | 86 kts | 25° |
| 2026-05-08 04:30 | 54.45627 | 48.40680 | 7104 ft | 87 kts | 25° |
| 2026-05-08 04:30 | 54.46153 | 48.41179 | 7251 ft | 87 kts | 25° |
| 2026-05-08 04:31 | 54.46684 | 48.41682 | 7399 ft | 87 kts | 25° |
| 2026-05-08 04:31 | 54.47221 | 48.42192 | 7547 ft | 87 kts | 25° |
| 2026-05-08 04:31 | 54.47753 | 48.42697 | 7691 ft | 88 kts | 25° |
| 2026-05-08 04:31 | 54.48284 | 48.43202 | 7833 ft | 88 kts | 25° |
| 2026-05-08 04:32 | 54.48824 | 48.43715 | 7975 ft | 88 kts | 25° |
| 2026-05-08 04:32 | 54.49358 | 48.44223 | 8114 ft | 88 kts | 25° |
| 2026-05-08 04:32 | 54.49895 | 48.44733 | 8251 ft | 89 kts | 25° |
| 2026-05-08 04:32 | 54.50438 | 48.45251 | 8388 ft | 89 kts | 25° |
| 2026-05-08 04:33 | 54.50977 | 48.45763 | 8518 ft | 89 kts | 25° |
| 2026-05-08 04:33 | 54.51527 | 48.46288 | 8649 ft | 90 kts | 25° |
| 2026-05-08 04:33 | 54.52071 | 48.46806 | 8777 ft | 90 kts | 25° |
| 2026-05-08 04:33 | 54.52615 | 48.47325 | 8904 ft | 90 kts | 25° |
| 2026-05-08 04:34 | 54.53170 | 48.47853 | 8994 ft | 95 kts | 25° |
| 2026-05-08 04:34 | 54.53790 | 48.48442 | 9007 ft | 105 kts | 25° |
| 2026-05-08 04:34 | 54.54443 | 48.49069 | 9006 ft | 110 kts | 26° |
| 2026-05-08 04:34 | 54.55117 | 48.49719 | 9005 ft | 112 kts | 26° |
| 2026-05-08 04:35 | 54.55804 | 48.50382 | 9005 ft | 115 kts | 26° |
| 2026-05-08 04:35 | 54.56515 | 48.51066 | 9004 ft | 116 kts | 26° |
| 2026-05-08 04:35 | 54.57219 | 48.51745 | 9003 ft | 117 kts | 26° |
| 2026-05-08 04:35 | 54.57927 | 48.52427 | 9003 ft | 117 kts | 26° |
| 2026-05-08 04:36 | 54.58640 | 48.53112 | 9003 ft | 117 kts | 26° |
| 2026-05-08 04:36 | 54.59351 | 48.53796 | 9003 ft | 117 kts | 26° |
| 2026-05-08 04:36 | 54.60062 | 48.54479 | 9003 ft | 117 kts | 26° |
| 2026-05-08 04:36 | 54.60782 | 48.55171 | 9003 ft | 117 kts | 26° |
| 2026-05-08 04:37 | 54.61492 | 48.55854 | 9003 ft | 117 kts | 26° |
| 2026-05-08 04:37 | 54.62205 | 48.56538 | 9003 ft | 117 kts | 26° |
| 2026-05-08 04:37 | 54.62921 | 48.57226 | 9003 ft | 117 kts | 26° |
| 2026-05-08 04:37 | 54.63628 | 48.57905 | 9003 ft | 117 kts | 26° |
| 2026-05-08 04:38 | 54.64344 | 48.58593 | 9003 ft | 117 kts | 26° |
| 2026-05-08 04:38 | 54.65054 | 48.59275 | 9003 ft | 117 kts | 26° |
| 2026-05-08 04:38 | 54.65772 | 48.59965 | 9003 ft | 117 kts | 26° |
| 2026-05-08 04:38 | 54.66480 | 48.60645 | 9003 ft | 117 kts | 26° |
| 2026-05-08 04:39 | 54.67194 | 48.61332 | 9003 ft | 117 kts | 26° |
| 2026-05-08 04:39 | 54.67910 | 48.62021 | 9003 ft | 117 kts | 26° |
| 2026-05-08 04:39 | 54.68621 | 48.62705 | 9003 ft | 117 kts | 26° |
| 2026-05-08 04:39 | 54.69329 | 48.63385 | 9003 ft | 117 kts | 26° |
| 2026-05-08 04:40 | 54.70039 | 48.64069 | 9003 ft | 117 kts | 26° |
| 2026-05-08 04:40 | 54.70756 | 48.64760 | 9003 ft | 117 kts | 26° |
| 2026-05-08 04:40 | 54.71466 | 48.65452 | 9003 ft | 117 kts | 27° |
| 2026-05-08 04:40 | 54.72169 | 48.66155 | 9003 ft | 117 kts | 27° |
| 2026-05-08 04:41 | 54.72879 | 48.66862 | 9003 ft | 117 kts | 27° |
| 2026-05-08 04:41 | 54.73589 | 48.67566 | 9003 ft | 117 kts | 27° |
| 2026-05-08 04:41 | 54.74294 | 48.68261 | 9003 ft | 117 kts | 27° |
| 2026-05-08 04:41 | 54.75007 | 48.68962 | 9003 ft | 117 kts | 27° |
| 2026-05-08 04:42 | 54.75711 | 48.69657 | 9002 ft | 117 kts | 25° |
| 2026-05-08 04:42 | 54.76419 | 48.70350 | 9002 ft | 118 kts | 25° |
| 2026-05-08 04:42 | 54.77132 | 48.71045 | 9002 ft | 118 kts | 25° |
| 2026-05-08 04:42 | 54.77850 | 48.71745 | 9002 ft | 118 kts | 25° |
| 2026-05-08 04:43 | 54.78574 | 48.72450 | 9003 ft | 119 kts | 25° |
| 2026-05-08 04:43 | 54.79293 | 48.73149 | 9003 ft | 119 kts | 25° |
| 2026-05-08 04:43 | 54.80012 | 48.73843 | 9003 ft | 119 kts | 25° |
| 2026-05-08 04:43 | 54.80733 | 48.74536 | 9003 ft | 119 kts | 25° |
| 2026-05-08 04:44 | 54.81467 | 48.75249 | 9002 ft | 119 kts | 26° |
| 2026-05-08 04:44 | 54.82182 | 48.75944 | 9003 ft | 119 kts | 26° |
| 2026-05-08 04:44 | 54.82914 | 48.76657 | 9003 ft | 119 kts | 26° |
| 2026-05-08 04:44 | 54.83629 | 48.77354 | 9003 ft | 119 kts | 26° |
| 2026-05-08 04:45 | 54.84361 | 48.78064 | 9003 ft | 119 kts | 25° |
| 2026-05-08 04:45 | 54.85083 | 48.78758 | 9003 ft | 119 kts | 26° |
| 2026-05-08 04:45 | 54.85807 | 48.79462 | 9003 ft | 119 kts | 26° |
| 2026-05-08 04:45 | 54.86536 | 48.80174 | 9003 ft | 119 kts | 26° |
| 2026-05-08 04:46 | 54.87254 | 48.80873 | 9003 ft | 119 kts | 26° |
| 2026-05-08 04:46 | 54.87978 | 48.81578 | 9003 ft | 119 kts | 26° |
| 2026-05-08 04:46 | 54.88710 | 48.82293 | 9003 ft | 119 kts | 26° |
| 2026-05-08 04:46 | 54.89433 | 48.82998 | 9003 ft | 119 kts | 26° |
| 2026-05-08 04:47 | 54.90151 | 48.83698 | 9003 ft | 119 kts | 26° |
| 2026-05-08 04:47 | 54.90881 | 48.84410 | 9000 ft | 120 kts | 26° |
| 2026-05-08 04:47 | 54.91606 | 48.85117 | 8994 ft | 120 kts | 26° |
| 2026-05-08 04:47 | 54.92330 | 48.85823 | 8993 ft | 120 kts | 26° |
| 2026-05-08 04:48 | 54.93055 | 48.86531 | 8993 ft | 120 kts | 26° |
| 2026-05-08 04:48 | 54.93790 | 48.87248 | 8993 ft | 120 kts | 26° |
| 2026-05-08 04:48 | 54.94510 | 48.87951 | 8993 ft | 119 kts | 26° |
| 2026-05-08 04:48 | 54.95231 | 48.88655 | 8993 ft | 119 kts | 26° |
| 2026-05-08 04:49 | 54.95964 | 48.89370 | 8993 ft | 119 kts | 26° |
| 2026-05-08 04:49 | 54.96686 | 48.90076 | 8993 ft | 119 kts | 26° |
| 2026-05-08 04:49 | 54.97411 | 48.90785 | 8993 ft | 119 kts | 26° |
| 2026-05-08 04:49 | 54.98136 | 48.91492 | 8993 ft | 119 kts | 26° |
| 2026-05-08 04:50 | 54.98863 | 48.92203 | 8993 ft | 119 kts | 26° |
| 2026-05-08 04:50 | 54.99587 | 48.92911 | 8993 ft | 119 kts | 26° |
| 2026-05-08 04:50 | 55.00310 | 48.93619 | 8993 ft | 119 kts | 26° |
| 2026-05-08 04:50 | 55.01036 | 48.94328 | 8993 ft | 119 kts | 26° |
| 2026-05-08 04:51 | 55.01759 | 48.95037 | 8993 ft | 119 kts | 26° |
| 2026-05-08 04:51 | 55.02479 | 48.95742 | 8993 ft | 119 kts | 26° |
| 2026-05-08 04:51 | 55.03203 | 48.96452 | 8993 ft | 119 kts | 26° |
| 2026-05-08 04:51 | 55.03935 | 48.97169 | 8993 ft | 119 kts | 26° |
| 2026-05-08 04:52 | 55.04655 | 48.97876 | 8993 ft | 119 kts | 26° |
| 2026-05-08 04:52 | 55.05378 | 48.98586 | 8985 ft | 120 kts | 26° |
| 2026-05-08 04:52 | 55.06110 | 48.99305 | 8969 ft | 121 kts | 26° |
| 2026-05-08 04:52 | 55.06842 | 49.00023 | 8967 ft | 121 kts | 26° |
| 2026-05-08 04:53 | 55.07571 | 49.00741 | 8966 ft | 120 kts | 26° |
| 2026-05-08 04:53 | 55.08306 | 49.01463 | 8966 ft | 120 kts | 26° |
| 2026-05-08 04:53 | 55.09029 | 49.02175 | 8966 ft | 120 kts | 26° |
| 2026-05-08 04:53 | 55.09752 | 49.02887 | 8966 ft | 120 kts | 26° |
| 2026-05-08 04:54 | 55.10487 | 49.03607 | 8967 ft | 120 kts | 25° |
| 2026-05-08 04:54 | 55.11217 | 49.04314 | 8967 ft | 120 kts | 25° |
| 2026-05-08 04:54 | 55.11950 | 49.05016 | 8967 ft | 120 kts | 25° |
| 2026-05-08 04:54 | 55.12669 | 49.05720 | 8967 ft | 120 kts | 25° |
| 2026-05-08 04:55 | 55.13400 | 49.06439 | 8967 ft | 120 kts | 26° |
| 2026-05-08 04:55 | 55.14120 | 49.07148 | 8967 ft | 120 kts | 26° |
| 2026-05-08 04:55 | 55.14846 | 49.07864 | 8967 ft | 120 kts | 26° |
| 2026-05-08 04:55 | 55.15571 | 49.08578 | 8967 ft | 120 kts | 26° |
| 2026-05-08 04:56 | 55.16304 | 49.09301 | 8967 ft | 120 kts | 26° |
| 2026-05-08 04:56 | 55.17023 | 49.10012 | 8967 ft | 120 kts | 26° |
| 2026-05-08 04:56 | 55.17752 | 49.10731 | 8967 ft | 120 kts | 26° |
| 2026-05-08 04:56 | 55.18476 | 49.11446 | 8967 ft | 120 kts | 26° |
| 2026-05-08 04:57 | 55.19203 | 49.12166 | 8967 ft | 120 kts | 26° |
| 2026-05-08 04:57 | 55.19928 | 49.12883 | 8967 ft | 120 kts | 26° |
| 2026-05-08 04:57 | 55.20650 | 49.13598 | 8967 ft | 120 kts | 26° |
| 2026-05-08 04:57 | 55.21381 | 49.14322 | 8967 ft | 120 kts | 26° |
| 2026-05-08 04:58 | 55.22100 | 49.15034 | 8967 ft | 120 kts | 26° |
| 2026-05-08 04:58 | 55.22827 | 49.15756 | 8967 ft | 120 kts | 26° |
| 2026-05-08 04:58 | 55.23551 | 49.16473 | 8967 ft | 120 kts | 26° |
| 2026-05-08 04:58 | 55.24283 | 49.17200 | 8967 ft | 120 kts | 26° |
| 2026-05-08 04:59 | 55.25010 | 49.17921 | 8967 ft | 120 kts | 26° |
| 2026-05-08 04:59 | 55.25735 | 49.18649 | 8966 ft | 121 kts | 23° |
| 2026-05-08 04:59 | 55.26470 | 49.19385 | 8967 ft | 122 kts | 23° |
| 2026-05-08 04:59 | 55.27208 | 49.20116 | 8968 ft | 123 kts | 23° |
| 2026-05-08 05:00 | 55.27964 | 49.20866 | 8968 ft | 124 kts | 23° |
| 2026-05-08 05:00 | 55.28731 | 49.21627 | 8968 ft | 125 kts | 23° |
| 2026-05-08 05:00 | 55.29502 | 49.22395 | 8967 ft | 125 kts | 23° |
| 2026-05-08 05:00 | 55.30277 | 49.23166 | 8967 ft | 125 kts | 23° |
| 2026-05-08 05:01 | 55.31034 | 49.23920 | 8967 ft | 124 kts | 23° |
| 2026-05-08 05:01 | 55.31783 | 49.24667 | 8967 ft | 124 kts | 23° |
| 2026-05-08 05:01 | 55.32537 | 49.25418 | 8969 ft | 124 kts | 24° |
| 2026-05-08 05:01 | 55.33287 | 49.26164 | 8967 ft | 123 kts | 24° |
| 2026-05-08 05:02 | 55.34032 | 49.26908 | 8967 ft | 123 kts | 24° |
| 2026-05-08 05:02 | 55.34775 | 49.27651 | 8967 ft | 122 kts | 24° |
| 2026-05-08 05:02 | 55.35511 | 49.28386 | 8967 ft | 122 kts | 24° |
| 2026-05-08 05:02 | 55.36248 | 49.29123 | 8967 ft | 122 kts | 24° |
| 2026-05-08 05:03 | 55.36988 | 49.29863 | 8967 ft | 122 kts | 24° |
| 2026-05-08 05:03 | 55.37726 | 49.30601 | 8967 ft | 122 kts | 24° |
| 2026-05-08 05:03 | 55.38462 | 49.31338 | 8967 ft | 122 kts | 24° |
| 2026-05-08 05:03 | 55.39197 | 49.32074 | 8967 ft | 122 kts | 24° |
| 2026-05-08 05:04 | 55.39931 | 49.32809 | 8967 ft | 122 kts | 24° |
| 2026-05-08 05:04 | 55.40665 | 49.33544 | 8967 ft | 122 kts | 24° |
| 2026-05-08 05:04 | 55.41390 | 49.34341 | 8963 ft | 124 kts | 39° |
| 2026-05-08 05:04 | 55.41752 | 49.35710 | 8964 ft | 128 kts | 83° |
| 2026-05-08 05:05 | 55.41631 | 49.37246 | 8967 ft | 128 kts | 105° |
| 2026-05-08 05:05 | 55.41339 | 49.38723 | 8968 ft | 128 kts | 112° |
| 2026-05-08 05:05 | 55.41013 | 49.40193 | 8968 ft | 128 kts | 112° |
| 2026-05-08 05:05 | 55.40684 | 49.41655 | 8968 ft | 128 kts | 113° |
| 2026-05-08 05:06 | 55.40339 | 49.43092 | 8968 ft | 128 kts | 114° |
| 2026-05-08 05:06 | 55.39975 | 49.44544 | 8968 ft | 128 kts | 115° |
| 2026-05-08 05:06 | 55.39604 | 49.45964 | 8968 ft | 128 kts | 116° |
| 2026-05-08 05:06 | 55.39218 | 49.47368 | 8968 ft | 128 kts | 117° |
| 2026-05-08 05:07 | 55.38822 | 49.48783 | 8968 ft | 128 kts | 118° |
| 2026-05-08 05:07 | 55.38421 | 49.50173 | 8968 ft | 128 kts | 118° |
| 2026-05-08 05:07 | 55.38012 | 49.51585 | 8968 ft | 128 kts | 118° |
| 2026-05-08 05:07 | 55.37611 | 49.52972 | 8968 ft | 128 kts | 118° |
| 2026-05-08 05:08 | 55.37203 | 49.54380 | 8968 ft | 128 kts | 118° |
| 2026-05-08 05:08 | 55.36808 | 49.55791 | 8968 ft | 128 kts | 114° |
| 2026-05-08 05:08 | 55.36463 | 49.57241 | 8968 ft | 128 kts | 113° |
| 2026-05-08 05:08 | 55.36125 | 49.58684 | 8968 ft | 129 kts | 113° |
| 2026-05-08 05:09 | 55.35781 | 49.60151 | 8968 ft | 129 kts | 113° |
| 2026-05-08 05:09 | 55.35440 | 49.61605 | 8968 ft | 129 kts | 113° |
| 2026-05-08 05:09 | 55.35099 | 49.63061 | 8968 ft | 129 kts | 113° |
| 2026-05-08 05:09 | 55.34757 | 49.64519 | 8968 ft | 129 kts | 113° |
| 2026-05-08 05:10 | 55.34414 | 49.65981 | 8967 ft | 129 kts | 114° |
| 2026-05-08 05:10 | 55.33738 | 49.68876 | 8966 ft | 129 kts | 114° |
| 2026-05-08 05:10 | 55.33393 | 49.70347 | 8966 ft | 129 kts | 114° |
| 2026-05-08 05:11 | 55.33056 | 49.71789 | 8966 ft | 129 kts | 114° |
| 2026-05-08 05:11 | 55.32713 | 49.73260 | 8966 ft | 129 kts | 114° |
| 2026-05-08 05:11 | 55.32377 | 49.74695 | 8967 ft | 129 kts | 114° |
| 2026-05-08 05:11 | 55.32032 | 49.76153 | 8967 ft | 128 kts | 113° |
| 2026-05-08 05:12 | 55.31683 | 49.77595 | 8967 ft | 128 kts | 114° |
| 2026-05-08 05:12 | 55.31330 | 49.79041 | 8967 ft | 128 kts | 114° |
| 2026-05-08 05:12 | 55.30983 | 49.80468 | 8967 ft | 128 kts | 114° |
| 2026-05-08 05:12 | 55.30637 | 49.81892 | 8967 ft | 127 kts | 114° |
| 2026-05-08 05:13 | 55.30286 | 49.83335 | 8967 ft | 127 kts | 114° |
| 2026-05-08 05:13 | 55.29939 | 49.84759 | 8967 ft | 127 kts | 114° |
| 2026-05-08 05:13 | 55.29588 | 49.86199 | 8967 ft | 127 kts | 114° |
| 2026-05-08 05:13 | 55.29241 | 49.87624 | 8967 ft | 127 kts | 114° |
| 2026-05-08 05:14 | 55.28894 | 49.89049 | 8967 ft | 127 kts | 114° |
| 2026-05-08 05:14 | 55.28542 | 49.90495 | 8967 ft | 127 kts | 114° |
| 2026-05-08 05:14 | 55.28194 | 49.91922 | 8967 ft | 127 kts | 114° |
| 2026-05-08 05:14 | 55.27845 | 49.93356 | 8967 ft | 127 kts | 114° |
| 2026-05-08 05:15 | 55.27499 | 49.94775 | 8967 ft | 127 kts | 113° |
| 2026-05-08 05:15 | 55.27149 | 49.96213 | 8967 ft | 127 kts | 113° |
| 2026-05-08 05:15 | 55.26797 | 49.97655 | 8967 ft | 127 kts | 113° |
| 2026-05-08 05:15 | 55.26452 | 49.99075 | 8967 ft | 127 kts | 113° |
| 2026-05-08 05:16 | 55.26104 | 50.00498 | 8967 ft | 127 kts | 113° |
| 2026-05-08 05:16 | 55.25753 | 50.01938 | 8967 ft | 127 kts | 113° |
| 2026-05-08 05:16 | 55.25404 | 50.03369 | 8967 ft | 127 kts | 113° |
| 2026-05-08 05:16 | 55.25057 | 50.04796 | 8967 ft | 127 kts | 113° |
| 2026-05-08 05:17 | 55.24707 | 50.06219 | 8969 ft | 127 kts | 113° |
| 2026-05-08 05:17 | 55.24349 | 50.07639 | 8967 ft | 126 kts | 113° |
| 2026-05-08 05:17 | 55.23989 | 50.09027 | 8967 ft | 125 kts | 113° |
| 2026-05-08 05:17 | 55.23627 | 50.10393 | 8967 ft | 124 kts | 113° |
| 2026-05-08 05:18 | 55.23263 | 50.11757 | 8967 ft | 123 kts | 113° |
| 2026-05-08 05:18 | 55.22897 | 50.13127 | 8967 ft | 123 kts | 113° |
| 2026-05-08 05:18 | 55.22535 | 50.14483 | 8967 ft | 123 kts | 113° |
| 2026-05-08 05:18 | 55.22173 | 50.15835 | 8967 ft | 123 kts | 113° |
| 2026-05-08 05:19 | 55.21812 | 50.17186 | 8967 ft | 123 kts | 113° |
| 2026-05-08 05:19 | 55.21447 | 50.18551 | 8967 ft | 123 kts | 113° |
| 2026-05-08 05:19 | 55.21087 | 50.19899 | 8967 ft | 123 kts | 113° |
| 2026-05-08 05:19 | 55.20727 | 50.21246 | 8967 ft | 122 kts | 113° |
| 2026-05-08 05:20 | 55.20365 | 50.22601 | 8967 ft | 122 kts | 113° |
| 2026-05-08 05:20 | 55.20001 | 50.23963 | 8967 ft | 122 kts | 113° |
| 2026-05-08 05:20 | 55.19642 | 50.25306 | 8967 ft | 123 kts | 113° |
| 2026-05-08 05:20 | 55.19275 | 50.26652 | 8968 ft | 122 kts | 113° |
| 2026-05-08 05:21 | 55.18901 | 50.28006 | 8968 ft | 122 kts | 112° |
| 2026-05-08 05:21 | 55.18559 | 50.29352 | 8967 ft | 121 kts | 110° |
| 2026-05-08 05:21 | 55.18224 | 50.30714 | 8967 ft | 121 kts | 110° |
| 2026-05-08 05:21 | 55.17892 | 50.32066 | 8967 ft | 121 kts | 110° |
| 2026-05-08 05:22 | 55.17563 | 50.33411 | 8967 ft | 121 kts | 110° |
| 2026-05-08 05:22 | 55.17229 | 50.34770 | 8967 ft | 121 kts | 110° |
| 2026-05-08 05:22 | 55.16898 | 50.36121 | 8967 ft | 121 kts | 110° |
| 2026-05-08 05:22 | 55.16566 | 50.37476 | 8967 ft | 121 kts | 110° |
| 2026-05-08 05:23 | 55.16234 | 50.38829 | 8967 ft | 121 kts | 110° |
| 2026-05-08 05:23 | 55.15905 | 50.40169 | 8967 ft | 121 kts | 110° |
| 2026-05-08 05:23 | 55.15572 | 50.41530 | 8967 ft | 121 kts | 110° |
| 2026-05-08 05:23 | 55.15241 | 50.42877 | 8967 ft | 121 kts | 110° |
| 2026-05-08 05:24 | 55.14909 | 50.44231 | 8967 ft | 121 kts | 110° |
| 2026-05-08 05:24 | 55.14582 | 50.45564 | 8967 ft | 121 kts | 110° |
| 2026-05-08 05:24 | 55.14248 | 50.46926 | 8967 ft | 121 kts | 110° |
| 2026-05-08 05:24 | 55.13919 | 50.48267 | 8967 ft | 121 kts | 110° |
| 2026-05-08 05:25 | 55.13586 | 50.49624 | 8967 ft | 121 kts | 110° |
| 2026-05-08 05:25 | 55.13257 | 50.50964 | 8967 ft | 121 kts | 110° |
| 2026-05-08 05:25 | 55.12923 | 50.52324 | 8967 ft | 121 kts | 110° |
| 2026-05-08 05:25 | 55.12595 | 50.53664 | 8967 ft | 121 kts | 110° |
| 2026-05-08 05:26 | 55.12262 | 50.55021 | 8967 ft | 121 kts | 110° |
| 2026-05-08 05:26 | 55.11933 | 50.56361 | 8967 ft | 121 kts | 110° |
| 2026-05-08 05:26 | 55.11599 | 50.57721 | 8967 ft | 121 kts | 110° |
| 2026-05-08 05:26 | 55.11270 | 50.59060 | 8967 ft | 121 kts | 110° |
| 2026-05-08 05:27 | 55.10938 | 50.60415 | 8967 ft | 121 kts | 110° |
| 2026-05-08 05:27 | 55.10609 | 50.61755 | 8967 ft | 121 kts | 110° |
| 2026-05-08 05:27 | 55.10275 | 50.63117 | 8967 ft | 121 kts | 110° |
| 2026-05-08 05:27 | 55.09944 | 50.64466 | 8967 ft | 121 kts | 110° |
| 2026-05-08 05:28 | 55.09614 | 50.65810 | 8967 ft | 121 kts | 110° |
| 2026-05-08 05:28 | 55.09280 | 50.67171 | 8968 ft | 121 kts | 110° |
| 2026-05-08 05:28 | 55.08951 | 50.68512 | 8968 ft | 121 kts | 110° |
| 2026-05-08 05:28 | 55.08622 | 50.69854 | 8968 ft | 121 kts | 110° |
| 2026-05-08 05:29 | 55.08289 | 50.71210 | 8968 ft | 121 kts | 110° |
| 2026-05-08 05:29 | 55.07955 | 50.72572 | 8968 ft | 121 kts | 110° |
| 2026-05-08 05:29 | 55.07626 | 50.73912 | 8968 ft | 121 kts | 110° |
| 2026-05-08 05:29 | 55.07295 | 50.75260 | 8968 ft | 121 kts | 110° |
| 2026-05-08 05:30 | 55.06955 | 50.76606 | 8968 ft | 121 kts | 110° |
| 2026-05-08 05:30 | 55.06611 | 50.77949 | 8968 ft | 121 kts | 110° |
| 2026-05-08 05:30 | 55.06280 | 50.79288 | 8968 ft | 121 kts | 109° |
| 2026-05-08 05:30 | 55.05947 | 50.80650 | 8968 ft | 121 kts | 109° |
| 2026-05-08 05:31 | 55.05618 | 50.81995 | 8968 ft | 121 kts | 109° |
| 2026-05-08 05:31 | 55.05474 | 50.83394 | 8966 ft | 116 kts | 75° |
| 2026-05-08 05:31 | 55.05906 | 50.84501 | 8968 ft | 111 kts | 33° |
| 2026-05-08 05:31 | 55.06583 | 50.85160 | 8969 ft | 111 kts | 24° |
| 2026-05-08 05:32 | 55.07282 | 50.85720 | 8968 ft | 111 kts | 22° |
| 2026-05-08 05:32 | 55.07992 | 50.86263 | 8968 ft | 111 kts | 22° |
| 2026-05-08 05:32 | 55.08700 | 50.86803 | 8968 ft | 111 kts | 22° |
| 2026-05-08 05:32 | 55.09419 | 50.87350 | 8968 ft | 111 kts | 22° |
| 2026-05-08 05:33 | 55.10127 | 50.87890 | 8968 ft | 112 kts | 22° |
| 2026-05-08 05:33 | 55.10835 | 50.88430 | 8968 ft | 112 kts | 22° |
| 2026-05-08 05:33 | 55.11549 | 50.88994 | 8968 ft | 112 kts | 23° |
| 2026-05-08 05:33 | 55.12248 | 50.89554 | 8968 ft | 112 kts | 23° |
| 2026-05-08 05:34 | 55.12958 | 50.90124 | 8968 ft | 112 kts | 23° |
| 2026-05-08 05:34 | 55.13667 | 50.90693 | 8968 ft | 112 kts | 23° |
| 2026-05-08 05:34 | 55.14370 | 50.91257 | 8968 ft | 112 kts | 23° |
| 2026-05-08 05:34 | 55.15080 | 50.91830 | 8968 ft | 112 kts | 24° |
| 2026-05-08 05:35 | 55.15773 | 50.92435 | 8968 ft | 112 kts | 25° |
| 2026-05-08 05:35 | 55.16471 | 50.93050 | 8968 ft | 112 kts | 25° |
| 2026-05-08 05:35 | 55.17160 | 50.93661 | 8968 ft | 112 kts | 25° |
| 2026-05-08 05:35 | 55.17849 | 50.94270 | 8968 ft | 112 kts | 25° |
| 2026-05-08 05:36 | 55.18550 | 50.94892 | 8968 ft | 112 kts | 25° |
| 2026-05-08 05:36 | 55.19239 | 50.95502 | 8968 ft | 112 kts | 25° |
| 2026-05-08 05:36 | 55.19940 | 50.96113 | 8968 ft | 112 kts | 25° |
| 2026-05-08 05:36 | 55.20638 | 50.96688 | 8967 ft | 112 kts | 24° |
| 2026-05-08 05:37 | 55.21346 | 50.97261 | 8967 ft | 112 kts | 23° |
| 2026-05-08 05:37 | 55.22053 | 50.97831 | 8967 ft | 112 kts | 23° |
| 2026-05-08 05:37 | 55.22757 | 50.98399 | 8967 ft | 112 kts | 23° |
| 2026-05-08 05:37 | 55.23464 | 50.98971 | 8967 ft | 112 kts | 23° |
| 2026-05-08 05:38 | 55.24165 | 50.99537 | 8967 ft | 112 kts | 23° |
| 2026-05-08 05:38 | 55.24875 | 51.00111 | 8967 ft | 112 kts | 23° |
| 2026-05-08 05:38 | 55.25573 | 51.00686 | 8967 ft | 112 kts | 24° |
| 2026-05-08 05:38 | 55.26281 | 51.01296 | 8967 ft | 114 kts | 25° |
| 2026-05-08 05:39 | 55.26981 | 51.01937 | 8967 ft | 115 kts | 25° |
| 2026-05-08 05:39 | 55.27695 | 51.02604 | 8967 ft | 116 kts | 25° |
| 2026-05-08 05:39 | 55.28410 | 51.03274 | 8967 ft | 116 kts | 25° |
| 2026-05-08 05:39 | 55.29117 | 51.03939 | 8967 ft | 117 kts | 25° |
| 2026-05-08 05:40 | 55.29838 | 51.04617 | 8967 ft | 117 kts | 25° |
| 2026-05-08 05:40 | 55.30560 | 51.05296 | 8967 ft | 117 kts | 25° |
| 2026-05-08 05:40 | 55.31273 | 51.05967 | 8967 ft | 117 kts | 25° |
| 2026-05-08 05:40 | 55.32001 | 51.06652 | 8967 ft | 117 kts | 25° |
| 2026-05-08 05:41 | 55.32718 | 51.07327 | 8967 ft | 118 kts | 25° |
| 2026-05-08 05:41 | 55.33452 | 51.07971 | 8967 ft | 117 kts | 22° |
| 2026-05-08 05:41 | 55.34186 | 51.08579 | 8967 ft | 117 kts | 22° |
| 2026-05-08 05:41 | 55.34930 | 51.09193 | 8967 ft | 117 kts | 22° |
| 2026-05-08 05:42 | 55.35656 | 51.09793 | 8967 ft | 116 kts | 22° |
| 2026-05-08 05:42 | 55.36391 | 51.10400 | 8967 ft | 116 kts | 22° |
| 2026-05-08 05:42 | 55.37121 | 51.10989 | 8967 ft | 116 kts | 21° |
| 2026-05-08 05:42 | 55.37858 | 51.11571 | 8967 ft | 116 kts | 21° |
| 2026-05-08 05:43 | 55.38594 | 51.12153 | 8967 ft | 116 kts | 21° |
| 2026-05-08 05:43 | 55.39296 | 51.12811 | 8962 ft | 117 kts | 40° |
| 2026-05-08 05:43 | 55.39682 | 51.14097 | 8967 ft | 120 kts | 70° |
| 2026-05-08 05:43 | 55.39899 | 51.15512 | 8967 ft | 120 kts | 73° |
| 2026-05-08 05:44 | 55.40108 | 51.16936 | 8967 ft | 120 kts | 72° |
| 2026-05-08 05:44 | 55.40324 | 51.18356 | 8967 ft | 120 kts | 72° |
| 2026-05-08 05:44 | 55.40549 | 51.19780 | 8946 ft | 122 kts | 71° |
| 2026-05-08 05:44 | 55.40782 | 51.21223 | 8821 ft | 124 kts | 71° |
| 2026-05-08 05:45 | 55.41024 | 51.22691 | 8697 ft | 125 kts | 71° |
| 2026-05-08 05:45 | 55.41271 | 51.24157 | 8567 ft | 125 kts | 71° |
| 2026-05-08 05:45 | 55.41522 | 51.25628 | 8418 ft | 125 kts | 70° |
| 2026-05-08 05:45 | 55.41772 | 51.27082 | 8269 ft | 124 kts | 70° |
| 2026-05-08 05:46 | 55.42029 | 51.28550 | 8117 ft | 123 kts | 70° |
| 2026-05-08 05:46 | 55.42281 | 51.29977 | 7967 ft | 121 kts | 70° |
| 2026-05-08 05:46 | 55.42530 | 51.31384 | 7817 ft | 120 kts | 69° |
| 2026-05-08 05:46 | 55.42780 | 51.32784 | 7666 ft | 119 kts | 69° |
| 2026-05-08 05:47 | 55.43026 | 51.34157 | 7517 ft | 118 kts | 69° |
| 2026-05-08 05:47 | 55.43274 | 51.35535 | 7367 ft | 117 kts | 69° |
| 2026-05-08 05:47 | 55.43521 | 51.36907 | 7217 ft | 117 kts | 69° |
| 2026-05-08 05:47 | 55.43769 | 51.38276 | 7066 ft | 117 kts | 69° |
| 2026-05-08 05:48 | 55.44014 | 51.39630 | 6918 ft | 117 kts | 69° |
| 2026-05-08 05:48 | 55.44261 | 51.40995 | 6768 ft | 116 kts | 69° |
| 2026-05-08 05:48 | 55.44507 | 51.42353 | 6618 ft | 116 kts | 69° |
| 2026-05-08 05:48 | 55.44753 | 51.43713 | 6468 ft | 116 kts | 69° |
| 2026-05-08 05:49 | 55.44997 | 51.45076 | 6318 ft | 116 kts | 70° |
| 2026-05-08 05:49 | 55.45239 | 51.46437 | 6169 ft | 116 kts | 70° |
| 2026-05-08 05:49 | 55.45477 | 51.47792 | 6020 ft | 116 kts | 70° |
| 2026-05-08 05:49 | 55.45712 | 51.49150 | 5870 ft | 116 kts | 70° |
| 2026-05-08 05:50 | 55.45956 | 51.50499 | 5721 ft | 116 kts | 69° |
| 2026-05-08 05:50 | 55.46204 | 51.51849 | 5572 ft | 116 kts | 69° |
| 2026-05-08 05:50 | 55.46450 | 51.53199 | 5422 ft | 116 kts | 70° |
| 2026-05-08 05:50 | 55.46693 | 51.54550 | 5273 ft | 116 kts | 70° |
| 2026-05-08 05:51 | 55.46933 | 51.55903 | 5123 ft | 116 kts | 70° |
| 2026-05-08 05:51 | 55.47176 | 51.57251 | 4976 ft | 115 kts | 70° |
| 2026-05-08 05:51 | 55.47407 | 51.58609 | 4815 ft | 116 kts | 71° |
| 2026-05-08 05:51 | 55.47649 | 51.59974 | 4647 ft | 116 kts | 69° |
| 2026-05-08 05:52 | 55.47898 | 51.61304 | 4497 ft | 113 kts | 70° |
| 2026-05-08 05:52 | 55.48137 | 51.62636 | 4330 ft | 113 kts | 70° |
| 2026-05-08 05:52 | 55.48388 | 51.63944 | 4162 ft | 113 kts | 68° |
| 2026-05-08 05:52 | 55.48626 | 51.65255 | 4005 ft | 112 kts | 71° |
| 2026-05-08 05:53 | 55.48851 | 51.66586 | 3817 ft | 114 kts | 72° |
| 2026-05-08 05:53 | 55.49053 | 51.67915 | 3663 ft | 112 kts | 74° |
| 2026-05-08 05:53 | 55.49260 | 51.69243 | 3508 ft | 111 kts | 72° |
| 2026-05-08 05:53 | 55.49471 | 51.70540 | 3353 ft | 110 kts | 72° |
| 2026-05-08 05:54 | 55.49700 | 51.71819 | 3180 ft | 111 kts | 70° |
| 2026-05-08 05:54 | 55.49760 | 51.73172 | 2944 ft | 118 kts | 107° |
| 2026-05-08 05:54 | 55.49190 | 51.74152 | 2793 ft | 115 kts | 161° |
| 2026-05-08 05:54 | 55.48440 | 51.74525 | 2769 ft | 113 kts | 163° |
| 2026-05-08 05:55 | 55.47681 | 51.74918 | 2771 ft | 113 kts | 159° |
| 2026-05-08 05:55 | 55.46963 | 51.75493 | 2770 ft | 112 kts | 149° |
| 2026-05-08 05:55 | 55.46304 | 51.76215 | 2770 ft | 112 kts | 144° |
| 2026-05-08 05:55 | 55.45667 | 51.76999 | 2770 ft | 111 kts | 139° |
| 2026-05-08 05:56 | 55.45121 | 51.77964 | 2759 ft | 112 kts | 131° |
| 2026-05-08 05:56 | 55.44559 | 51.78906 | 2764 ft | 111 kts | 136° |
| 2026-05-08 05:56 | 55.43977 | 51.79826 | 2759 ft | 111 kts | 136° |
| 2026-05-08 05:56 | 55.43407 | 51.80721 | 2769 ft | 110 kts | 136° |
| 2026-05-08 05:57 | 55.42830 | 51.81609 | 2771 ft | 110 kts | 136° |
| 2026-05-08 05:57 | 55.42279 | 51.82555 | 2762 ft | 110 kts | 121° |
| 2026-05-08 05:57 | 55.42158 | 51.83815 | 2743 ft | 108 kts | 74° |
| 2026-05-08 05:57 | 55.42619 | 51.84821 | 2734 ft | 108 kts | 38° |
| 2026-05-08 05:58 | 55.43224 | 51.85583 | 2758 ft | 106 kts | 35° |
| 2026-05-08 05:58 | 55.43840 | 51.86340 | 2698 ft | 107 kts | 36° |
| 2026-05-08 05:58 | 55.44428 | 51.87123 | 2610 ft | 106 kts | 39° |
| 2026-05-08 05:58 | 55.44965 | 51.88009 | 2554 ft | 106 kts | 46° |
| 2026-05-08 05:59 | 55.45480 | 51.88921 | 2551 ft | 104 kts | 44° |
| 2026-05-08 05:59 | 55.46009 | 51.89813 | 2565 ft | 103 kts | 44° |
| 2026-05-08 05:59 | 55.46504 | 51.90696 | 2606 ft | 101 kts | 46° |
| 2026-05-08 05:59 | 55.46998 | 51.91610 | 2596 ft | 105 kts | 47° |
| 2026-05-08 06:00 | 55.47491 | 51.92587 | 2581 ft | 106 kts | 46° |
| 2026-05-08 06:00 | 55.48006 | 51.93502 | 2572 ft | 105 kts | 45° |
| 2026-05-08 06:00 | 55.48521 | 51.94403 | 2569 ft | 104 kts | 45° |
| 2026-05-08 06:00 | 55.49033 | 51.95335 | 2457 ft | 111 kts | 47° |
| 2026-05-08 06:01 | 55.49542 | 51.96312 | 2308 ft | 104 kts | 48° |
| 2026-05-08 06:01 | 55.50016 | 51.97240 | 2186 ft | 93 kts | 47° |
| 2026-05-08 06:01 | 55.50471 | 51.97996 | 2079 ft | 88 kts | 42° |
| 2026-05-08 06:01 | 55.50905 | 51.98705 | 1991 ft | 83 kts | 46° |
| 2026-05-08 06:02 | 55.51302 | 51.99436 | 1886 ft | 80 kts | 46° |
| 2026-05-08 06:02 | 55.51685 | 52.00138 | 1770 ft | 76 kts | 51° |
| 2026-05-08 06:02 | 55.52029 | 52.00785 | 1688 ft | 72 kts | 45° |
| 2026-05-08 06:02 | 55.52391 | 52.01413 | 1602 ft | 74 kts | 43° |
| 2026-05-08 06:03 | 55.52755 | 52.02014 | 1541 ft | 72 kts | 47° |
| 2026-05-08 06:03 | 55.53109 | 52.02671 | 1457 ft | 74 kts | 45° |
| 2026-05-08 06:03 | 55.53497 | 52.03287 | 1358 ft | 75 kts | 44° |
| 2026-05-08 06:03 | 55.53857 | 52.03948 | 1270 ft | 75 kts | 49° |
| 2026-05-08 06:04 | 55.54212 | 52.04629 | 1172 ft | 74 kts | 50° |
| 2026-05-08 06:04 | 55.54549 | 52.05299 | 1066 ft | 73 kts | 48° |
| 2026-05-08 06:04 | 55.54901 | 52.05951 | 947 ft | 72 kts | 46° |
| 2026-05-08 06:04 | 55.55231 | 52.06609 | 841 ft | 70 kts | 60° |
| 2026-05-08 06:05 | 55.55463 | 52.07349 | 747 ft | 68 kts | 53° |
| 2026-05-08 06:05 | 55.55778 | 52.07955 | 654 ft | 65 kts | 48° |
| 2026-05-08 06:05 | 55.56067 | 52.08503 | 647 ft | 55 kts | 47° |
| 2026-05-08 06:05 | 55.56289 | 52.08924 | 647 ft | 42 kts | 47° |
| 2026-05-08 06:06 | 55.56487 | 52.09298 | 647 ft | 41 kts | 46° |
| 2026-05-08 06:06 | 55.56644 | 52.09596 | 647 ft | 24 kts | 46° |
| 2026-05-08 06:06 | 55.56708 | 52.09720 | 647 ft | 12 kts | 57° |
| 2026-05-08 06:06 | 55.56658 | 52.09852 | 647 ft | 15 kts | 137° |
| 2026-05-08 06:07 | 55.56630 | 52.09895 | 647 ft | 0 kts | 136° |
| 2026-05-08 06:08 | 55.56630 | 52.09897 | 647 ft | 1 kts | 135° |
| 2026-05-08 06:08 | 55.56604 | 52.09943 | 647 ft | 8 kts | 146° |
| 2026-05-08 06:08 | 55.56604 | 52.10048 | 647 ft | 12 kts | 45° |
| 2026-05-08 06:09 | 55.56667 | 52.10165 | 647 ft | 7 kts | 45° |
| 2026-05-08 06:09 | 55.56673 | 52.10247 | 647 ft | 0 kts | 134° |
| 2026-05-08 06:09 | 55.56666 | 52.10258 | 647 ft | 0 kts | 139° |
| 2026-05-08 06:10 | 55.56659 | 52.10269 | 647 ft | 6 kts | 140° |
| 2026-05-08 06:10 | 55.56667 | 52.10336 | 647 ft | 10 kts | 41° |
| 2026-05-08 06:10 | 55.56736 | 52.10468 | 647 ft | 17 kts | 45° |
| 2026-05-08 06:10 | 55.56810 | 52.10607 | 647 ft | 14 kts | 47° |
| 2026-05-08 06:11 | 55.56864 | 52.10709 | 647 ft | 6 kts | 48° |
| 2026-05-08 06:11 | 55.56896 | 52.10768 | 647 ft | 7 kts | 46° |
| 2026-05-08 06:11 | 55.56939 | 52.10767 | 647 ft | 5 kts | 317° |
| 2026-05-08 06:11 | 55.56945 | 52.10756 | 647 ft | 0 kts | 316° |